sensor_id;sensor_type;location;lat;lon;timestamp;pressure;altitude;pressure_sealevel;temperature;humidity
61573;BME280;47465;43.094;12.434;2023-04-05T00:00:57;98462.75;;;4.76;59.06
61573;BME280;47465;43.094;12.434;2023-04-05T00:03:24;98463.63;;;4.76;58.96
61573;BME280;47465;43.094;12.434;2023-04-05T00:05:50;98463.63;;;4.76;59.07
61573;BME280;47465;43.094;12.434;2023-04-05T00:08:19;98460.13;;;4.74;59.15
61573;BME280;47465;43.094;12.434;2023-04-05T00:10:48;98485.44;;;4.92;59.06
61573;BME280;47465;43.094;12.434;2023-04-05T00:13:14;98507.38;;;4.97;59.51
61573;BME280;47465;43.094;12.434;2023-04-05T00:15:40;98489.06;;;4.82;59.70
61573;BME280;47465;43.094;12.434;2023-04-05T00:18:07;98479.38;;;4.82;59.86
61573;BME280;47465;43.094;12.434;2023-04-05T00:20:46;98484.75;;;4.73;59.98
61573;BME280;47465;43.094;12.434;2023-04-05T00:23:12;98473.28;;;4.76;59.99
61573;BME280;47465;43.094;12.434;2023-04-05T00:25:39;98497.75;;;4.90;59.66
61573;BME280;47465;43.094;12.434;2023-04-05T00:28:05;98478.53;;;4.82;59.28
61573;BME280;47465;43.094;12.434;2023-04-05T00:30:32;98495.97;;;4.93;59.42
61573;BME280;47465;43.094;12.434;2023-04-05T00:32:58;98467.16;;;4.75;60.39
61573;BME280;47465;43.094;12.434;2023-04-05T00:35:27;98484.56;;;4.91;58.95
61573;BME280;47465;43.094;12.434;2023-04-05T00:37:54;98501.13;;;5.04;58.87
61573;BME280;47465;43.094;12.434;2023-04-05T00:40:20;98476.66;;;4.93;58.57
61573;BME280;47465;43.094;12.434;2023-04-05T00:42:46;98467.88;;;4.92;58.35
61573;BME280;47465;43.094;12.434;2023-04-05T00:45:12;98480.16;;;4.92;58.87
61573;BME280;47465;43.094;12.434;2023-04-05T00:47:38;98475.75;;;4.94;58.15
61573;BME280;47465;43.094;12.434;2023-04-05T00:50:08;98495.00;;;5.05;58.57
61573;BME280;47465;43.094;12.434;2023-04-05T00:52:35;98501.16;;;5.03;58.27
61573;BME280;47465;43.094;12.434;2023-04-05T00:55:03;98474.06;;;4.85;58.79
61573;BME280;47465;43.094;12.434;2023-04-05T00:57:32;98496.81;;;4.97;57.99
61573;BME280;47465;43.094;12.434;2023-04-05T01:00:00;98499.47;;;4.97;58.26
61573;BME280;47465;43.094;12.434;2023-04-05T01:02:34;98480.25;;;4.84;58.18
61573;BME280;47465;43.094;12.434;2023-04-05T01:05:13;98479.38;;;4.82;58.51
61573;BME280;47465;43.094;12.434;2023-04-05T01:07:49;98473.22;;;4.83;58.40
61573;BME280;47465;43.094;12.434;2023-04-05T01:10:16;98457.44;;;4.79;58.46
61573;BME280;47465;43.094;12.434;2023-04-05T01:12:47;98463.66;;;4.73;58.42
61573;BME280;47465;43.094;12.434;2023-04-05T01:15:13;98457.44;;;4.79;58.23
61573;BME280;47465;43.094;12.434;2023-04-05T01:17:39;98477.53;;;4.95;57.98
61573;BME280;47465;43.094;12.434;2023-04-05T01:20:08;98479.19;;;5.01;57.89
61573;BME280;47465;43.094;12.434;2023-04-05T01:26:03;98482.63;;;5.10;57.93
61573;BME280;47465;43.094;12.434;2023-04-05T01:28:47;98478.19;;;5.15;57.18
61573;BME280;47465;43.094;12.434;2023-04-05T01:31:22;98459.78;;;5.11;57.10
61573;BME280;47465;43.094;12.434;2023-04-05T01:33:55;98481.69;;;5.18;57.40
61573;BME280;47465;43.094;12.434;2023-04-05T01:36:26;98488.66;;;5.25;57.09
61573;BME280;47465;43.094;12.434;2023-04-05T01:38:57;98458.06;;;5.10;57.18
61573;BME280;47465;43.094;12.434;2023-04-05T01:41:24;98452.84;;;5.04;56.96
61573;BME280;47465;43.094;12.434;2023-04-05T01:43:50;98459.84;;;5.06;56.89
61573;BME280;47465;43.094;12.434;2023-04-05T01:46:16;98483.44;;;5.19;57.61
61573;BME280;47465;43.094;12.434;2023-04-05T01:48:44;98473.88;;;5.10;56.97
61573;BME280;47465;43.094;12.434;2023-04-05T01:51:10;98467.78;;;5.03;57.28
61573;BME280;47465;43.094;12.434;2023-04-05T01:53:36;98474.63;;;5.18;57.07
61573;BME280;47465;43.094;12.434;2023-04-05T01:56:02;98478.13;;;5.23;56.87
61573;BME280;47465;43.094;12.434;2023-04-05T01:58:28;98458.06;;;5.07;57.12
61573;BME280;47465;43.094;12.434;2023-04-05T02:00:54;98455.38;;;5.11;57.16
61573;BME280;47465;43.094;12.434;2023-04-05T02:03:20;98482.47;;;5.26;57.07
61573;BME280;47465;43.094;12.434;2023-04-05T02:05:47;98459.03;;;5.01;57.24
61573;BME280;47465;43.094;12.434;2023-04-05T02:08:13;98472.91;;;5.15;57.09
61573;BME280;47465;43.094;12.434;2023-04-05T02:10:40;98462.47;;;5.06;57.00
61573;BME280;47465;43.094;12.434;2023-04-05T02:13:06;98459.03;;;5.01;57.04
61573;BME280;47465;43.094;12.434;2023-04-05T02:15:32;98452.84;;;5.01;57.12
61573;BME280;47465;43.094;12.434;2023-04-05T02:17:58;98481.63;;;5.24;57.62
61573;BME280;47465;43.094;12.434;2023-04-05T02:20:27;98458.94;;;5.07;57.28
61573;BME280;47465;43.094;12.434;2023-04-05T02:22:55;98469.56;;;5.01;57.53
61573;BME280;47465;43.094;12.434;2023-04-05T02:25:21;98462.56;;;4.97;57.43
61573;BME280;47465;43.094;12.434;2023-04-05T02:27:47;98464.34;;;4.97;57.67
61573;BME280;47465;43.094;12.434;2023-04-05T02:30:13;98475.66;;;5.08;57.45
61573;BME280;47465;43.094;12.434;2023-04-05T02:32:39;98464.25;;;5.04;57.06
61573;BME280;47465;43.094;12.434;2023-04-05T02:35:13;98477.31;;;5.13;57.15
61573;BME280;47465;43.094;12.434;2023-04-05T02:37:39;98498.31;;;5.24;57.09
61573;BME280;47465;43.094;12.434;2023-04-05T02:40:11;98492.22;;;5.21;56.98
61573;BME280;47465;43.094;12.434;2023-04-05T02:42:38;98471.94;;;5.24;57.00
61573;BME280;47465;43.094;12.434;2023-04-05T02:45:04;98475.53;;;5.19;57.00
61573;BME280;47465;43.094;12.434;2023-04-05T02:47:30;98482.53;;;5.21;57.17
61573;BME280;47465;43.094;12.434;2023-04-05T02:49:56;98473.66;;;5.27;57.09
61573;BME280;47465;43.094;12.434;2023-04-05T02:52:22;98460.66;;;5.11;57.67
61573;BME280;47465;43.094;12.434;2023-04-05T02:54:48;98470.34;;;5.09;57.34
61573;BME280;47465;43.094;12.434;2023-04-05T02:57:15;98468.59;;;5.08;58.03
61573;BME280;47465;43.094;12.434;2023-04-05T02:59:41;98467.69;;;5.09;57.39
61573;BME280;47465;43.094;12.434;2023-04-05T03:02:08;98459.78;;;5.09;57.13
61573;BME280;47465;43.094;12.434;2023-04-05T03:04:34;98475.53;;;5.19;57.23
61573;BME280;47465;43.094;12.434;2023-04-05T03:07:00;98461.56;;;5.07;57.26
61573;BME280;47465;43.094;12.434;2023-04-05T03:09:28;98477.19;;;5.27;57.00
61573;BME280;47465;43.094;12.434;2023-04-05T03:11:59;98460.59;;;5.18;57.59
61573;BME280;47465;43.094;12.434;2023-04-05T03:14:27;98475.50;;;5.22;57.34
61573;BME280;47465;43.094;12.434;2023-04-05T03:16:53;98468.50;;;5.18;57.70
61573;BME280;47465;43.094;12.434;2023-04-05T03:19:19;98447.56;;;5.04;57.54
61573;BME280;47465;43.094;12.434;2023-04-05T03:21:47;98473.72;;;5.25;57.74
61573;BME280;47465;43.094;12.434;2023-04-05T03:24:13;98458.00;;;5.14;57.68
61573;BME280;47465;43.094;12.434;2023-04-05T03:26:42;98472.00;;;5.21;57.66
61573;BME280;47465;43.094;12.434;2023-04-05T03:29:08;98480.00;;;5.12;58.01
61573;BME280;47465;43.094;12.434;2023-04-05T03:31:36;98460.66;;;5.11;57.87
61573;BME280;47465;43.094;12.434;2023-04-05T03:34:02;98471.13;;;5.19;58.41
61573;BME280;47465;43.094;12.434;2023-04-05T03:36:28;98458.84;;;5.17;57.89
61573;BME280;47465;43.094;12.434;2023-04-05T03:38:55;98454.53;;;5.09;58.00
61573;BME280;47465;43.094;12.434;2023-04-05T03:41:21;98452.78;;;5.07;58.62
61573;BME280;47465;43.094;12.434;2023-04-05T03:43:47;98461.56;;;5.12;58.80
61573;BME280;47465;43.094;12.434;2023-04-05T03:46:14;98464.19;;;5.07;58.33
61573;BME280;47465;43.094;12.434;2023-04-05T03:48:41;98457.25;;;5.03;58.27
61573;BME280;47465;43.094;12.434;2023-04-05T03:51:07;98475.53;;;5.17;58.50
61573;BME280;47465;43.094;12.434;2023-04-05T03:53:34;98463.28;;;5.11;58.48
61573;BME280;47465;43.094;12.434;2023-04-05T03:55:59;98487.88;;;5.13;59.11
61573;BME280;47465;43.094;12.434;2023-04-05T03:58:26;98493.09;;;5.20;58.61
61573;BME280;47465;43.094;12.434;2023-04-05T04:00:52;98469.47;;;5.07;58.86
61573;BME280;47465;43.094;12.434;2023-04-05T04:03:18;98489.59;;;5.19;58.90
61573;BME280;47465;43.094;12.434;2023-04-05T04:05:45;98486.09;;;5.15;59.08
61573;BME280;47465;43.094;12.434;2023-04-05T04:08:11;98457.25;;;5.02;59.06
61573;BME280;47465;43.094;12.434;2023-04-05T04:10:38;98466.00;;;5.05;58.92
61573;BME280;47465;43.094;12.434;2023-04-05T04:13:04;98479.09;;;5.13;59.36
61573;BME280;47465;43.094;12.434;2023-04-05T04:15:30;98465.97;;;5.10;59.12
61573;BME280;47465;43.094;12.434;2023-04-05T04:17:56;98479.09;;;5.13;59.54
61573;BME280;47465;43.094;12.434;2023-04-05T04:20:22;98463.38;;;5.01;59.61
61573;BME280;47465;43.094;12.434;2023-04-05T04:22:49;98460.69;;;5.10;59.42
61573;BME280;47465;43.094;12.434;2023-04-05T04:25:18;98465.16;;;5.02;60.08
61573;BME280;47465;43.094;12.434;2023-04-05T04:27:44;98490.44;;;5.18;60.25
61573;BME280;47465;43.094;12.434;2023-04-05T04:30:13;98459.88;;;5.03;60.30
61573;BME280;47465;43.094;12.434;2023-04-05T04:32:42;98465.09;;;5.06;60.37
61573;BME280;47465;43.094;12.434;2023-04-05T04:35:50;98478.34;;;5.02;60.52
61573;BME280;47465;43.094;12.434;2023-04-05T04:38:19;98495.72;;;5.23;60.10
61573;BME280;47465;43.094;12.434;2023-04-05T04:40:45;98506.31;;;5.17;60.90
61573;BME280;47465;43.094;12.434;2023-04-05T04:43:13;98478.28;;;5.06;60.71
61573;BME280;47465;43.094;12.434;2023-04-05T04:45:41;98477.47;;;5.01;60.97
61573;BME280;47465;43.094;12.434;2023-04-05T04:48:07;98508.94;;;5.15;61.10
61573;BME280;47465;43.094;12.434;2023-04-05T04:50:34;98480.06;;;5.06;60.76
61573;BME280;47465;43.094;12.434;2023-04-05T04:53:02;98503.69;;;5.15;61.19
61573;BME280;47465;43.094;12.434;2023-04-05T04:55:28;98480.06;;;5.04;60.82
61573;BME280;47465;43.094;12.434;2023-04-05T04:57:54;98511.53;;;5.23;60.96
61573;BME280;47465;43.094;12.434;2023-04-05T05:00:21;98492.38;;;5.04;61.20
61573;BME280;47465;43.094;12.434;2023-04-05T05:02:49;98486.19;;;5.05;61.17
61573;BME280;47465;43.094;12.434;2023-04-05T05:05:16;98506.31;;;5.13;60.50
61573;BME280;47465;43.094;12.434;2023-04-05T05:07:42;98488.88;;;5.00;60.67
61573;BME280;47465;43.094;12.434;2023-04-05T05:10:10;98509.84;;;5.12;60.61
61573;BME280;47465;43.094;12.434;2023-04-05T05:12:37;98518.56;;;5.19;60.79
61573;BME280;47465;43.094;12.434;2023-04-05T05:15:03;98520.34;;;5.19;60.39
61573;BME280;47465;43.094;12.434;2023-04-05T05:17:29;98487.97;;;5.04;60.30
61573;BME280;47465;43.094;12.434;2023-04-05T05:19:57;98507.22;;;5.11;60.54
61573;BME280;47465;43.094;12.434;2023-04-05T05:22:25;98512.41;;;5.22;60.71
61573;BME280;47465;43.094;12.434;2023-04-05T05:24:51;98498.47;;;5.07;60.51
61573;BME280;47465;43.094;12.434;2023-04-05T05:27:19;98500.19;;;5.14;59.96
61573;BME280;47465;43.094;12.434;2023-04-05T05:29:46;98488.75;;;5.14;59.67
61573;BME280;47465;43.094;12.434;2023-04-05T05:32:12;98497.53;;;5.13;60.06
61573;BME280;47465;43.094;12.434;2023-04-05T05:34:40;98515.09;;;5.15;59.78
61573;BME280;47465;43.094;12.434;2023-04-05T05:37:06;98522.94;;;5.23;59.70
61573;BME280;47465;43.094;12.434;2023-04-05T05:39:34;98515.94;;;5.21;59.68
61573;BME280;47465;43.094;12.434;2023-04-05T05:42:00;98519.41;;;5.24;60.19
61573;BME280;47465;43.094;12.434;2023-04-05T05:44:27;98520.34;;;5.15;59.77
61573;BME280;47465;43.094;12.434;2023-04-05T05:46:53;98522.06;;;5.23;59.93
61573;BME280;47465;43.094;12.434;2023-04-05T05:49:19;98535.19;;;5.27;59.70
61573;BME280;47465;43.094;12.434;2023-04-05T05:51:45;98515.84;;;5.28;59.31
61573;BME280;47465;43.094;12.434;2023-04-05T05:54:11;98527.09;;;5.44;59.42
61573;BME280;47465;43.094;12.434;2023-04-05T05:56:37;98534.13;;;5.44;59.42
61573;BME280;47465;43.094;12.434;2023-04-05T05:59:03;98516.56;;;5.44;59.39
61573;BME280;47465;43.094;12.434;2023-04-05T06:01:31;98510.34;;;5.50;58.88
61573;BME280;47465;43.094;12.434;2023-04-05T06:03:59;98521.75;;;5.53;59.11
61573;BME280;47465;43.094;12.434;2023-04-05T06:06:25;98522.50;;;5.65;58.66
61573;BME280;47465;43.094;12.434;2023-04-05T06:08:51;98527.94;;;5.49;59.00
61573;BME280;47465;43.094;12.434;2023-04-05T06:11:18;98545.53;;;5.49;59.44
61573;BME280;47465;43.094;12.434;2023-04-05T06:13:44;98526.13;;;5.56;59.13
61573;BME280;47465;43.094;12.434;2023-04-05T06:16:10;98555.88;;;5.70;59.47
61573;BME280;47465;43.094;12.434;2023-04-05T06:18:37;98526.91;;;5.63;59.08
61573;BME280;47465;43.094;12.434;2023-04-05T06:21:03;98543.47;;;5.77;59.35
61573;BME280;47465;43.094;12.434;2023-04-05T06:23:29;98526.09;;;5.58;59.47
61573;BME280;47465;43.094;12.434;2023-04-05T06:25:55;98548.63;;;5.86;59.35
61573;BME280;47465;43.094;12.434;2023-04-05T06:28:21;98526.88;;;5.67;59.11
61573;BME280;47465;43.094;12.434;2023-04-05T06:30:47;98538.97;;;5.85;59.22
61573;BME280;47465;43.094;12.434;2023-04-05T06:33:13;98531.94;;;5.84;58.59
61573;BME280;47465;43.094;12.434;2023-04-05T06:35:40;98564.25;;;6.06;58.67
61573;BME280;47465;43.094;12.434;2023-04-05T06:38:06;98534.53;;;5.87;58.08
61573;BME280;47465;43.094;12.434;2023-04-05T06:40:32;98534.47;;;5.96;57.94
61573;BME280;47465;43.094;12.434;2023-04-05T06:42:58;98533.84;;;5.71;58.36
61573;BME280;47465;43.094;12.434;2023-04-05T06:45:24;98532.94;;;5.74;58.92
61573;BME280;47465;43.094;12.434;2023-04-05T06:47:50;98550.28;;;6.00;59.32
61573;BME280;47465;43.094;12.434;2023-04-05T06:50:16;98534.44;;;5.98;58.76
61573;BME280;47465;43.094;12.434;2023-04-05T06:52:44;98518.69;;;5.89;58.82
61573;BME280;47465;43.094;12.434;2023-04-05T06:55:09;98529.25;;;5.89;58.27
61573;BME280;47465;43.094;12.434;2023-04-05T06:57:35;98512.75;;;5.71;58.44
61573;BME280;47465;43.094;12.434;2023-04-05T07:00:02;98534.53;;;5.90;58.56
61573;BME280;47465;43.094;12.434;2023-04-05T07:02:33;98518.81;;;5.80;58.71
61573;BME280;47465;43.094;12.434;2023-04-05T07:04:59;98525.94;;;5.73;58.69
61573;BME280;47465;43.094;12.434;2023-04-05T07:07:29;98524.22;;;5.66;59.04
61573;BME280;47465;43.094;12.434;2023-04-05T07:09:57;98547.72;;;5.87;58.59
61573;BME280;47465;43.094;12.434;2023-04-05T07:12:23;98560.13;;;5.81;59.14
61573;BME280;47465;43.094;12.434;2023-04-05T07:14:49;98547.94;;;5.70;59.55
61573;BME280;47465;43.094;12.434;2023-04-05T07:17:15;98527.03;;;5.53;59.18
61573;BME280;47465;43.094;12.434;2023-04-05T07:19:41;98552.25;;;5.76;58.95
61573;BME280;47465;43.094;12.434;2023-04-05T07:22:07;98541.75;;;5.73;59.09
61573;BME280;47465;43.094;12.434;2023-04-05T07:24:33;98557.59;;;5.70;58.70
61573;BME280;47465;43.094;12.434;2023-04-05T07:27:00;98547.78;;;5.81;59.55
61573;BME280;47465;43.094;12.434;2023-04-05T07:29:27;98552.28;;;5.74;58.85
61573;BME280;47465;43.094;12.434;2023-04-05T07:31:53;98531.22;;;5.70;58.81
61573;BME280;47465;43.094;12.434;2023-04-05T07:34:19;98529.47;;;5.70;59.15
61573;BME280;47465;43.094;12.434;2023-04-05T07:36:45;98529.63;;;5.56;59.46
61573;BME280;47465;43.094;12.434;2023-04-05T07:39:11;98531.25;;;5.68;59.10
61573;BME280;47465;43.094;12.434;2023-04-05T07:41:37;98553.91;;;5.86;59.34
61573;BME280;47465;43.094;12.434;2023-04-05T07:44:04;98539.78;;;5.95;59.47
61573;BME280;47465;43.094;12.434;2023-04-05T07:46:31;98530.84;;;6.05;58.80
61573;BME280;47465;43.094;12.434;2023-04-05T07:48:56;98540.66;;;5.92;58.91
61573;BME280;47465;43.094;12.434;2023-04-05T07:51:24;98530.78;;;6.10;59.31
61573;BME280;47465;43.094;12.434;2023-04-05T07:53:50;98518.69;;;5.90;59.12
61573;BME280;47465;43.094;12.434;2023-04-05T07:56:16;98558.19;;;6.00;58.02
61573;BME280;47465;43.094;12.434;2023-04-05T07:58:43;98557.06;;;6.17;57.97
61573;BME280;47465;43.094;12.434;2023-04-05T08:01:10;98553.44;;;6.28;58.33
61573;BME280;47465;43.094;12.434;2023-04-05T08:03:37;98554.06;;;6.45;57.86
61573;BME280;47465;43.094;12.434;2023-04-05T08:06:10;98557.63;;;6.44;56.73
61573;BME280;47465;43.094;12.434;2023-04-05T08:08:37;98577.34;;;6.81;56.39
61573;BME280;47465;43.094;12.434;2023-04-05T08:11:03;98581.59;;;6.91;56.13
61573;BME280;47465;43.094;12.434;2023-04-05T08:13:29;98574.56;;;6.90;56.00
61573;BME280;47465;43.094;12.434;2023-04-05T08:15:56;98577.75;;;7.12;55.98
61573;BME280;47465;43.094;12.434;2023-04-05T08:18:24;98565.50;;;7.57;55.42
61573;BME280;47465;43.094;12.434;2023-04-05T08:20:50;98554.59;;;7.74;54.32
61573;BME280;47465;43.094;12.434;2023-04-05T08:23:16;98574.59;;;7.89;53.08
61573;BME280;47465;43.094;12.434;2023-04-05T08:25:43;98545.66;;;7.78;52.87
61573;BME280;47465;43.094;12.434;2023-04-05T08:28:09;98546.78;;;7.68;53.62
61573;BME280;47465;43.094;12.434;2023-04-05T08:30:35;98555.44;;;7.76;53.14
61573;BME280;47465;43.094;12.434;2023-04-05T08:33:01;98554.84;;;8.06;52.02
61573;BME280;47465;43.094;12.434;2023-04-05T08:35:39;98543.53;;;7.52;53.32
61573;BME280;47465;43.094;12.434;2023-04-05T08:38:06;98566.53;;;7.95;52.57
61573;BME280;47465;43.094;12.434;2023-04-05T08:40:38;98549.97;;;7.86;52.31
61573;BME280;47465;43.094;12.434;2023-04-05T08:43:09;98544.53;;;7.45;52.43
61573;BME280;47465;43.094;12.434;2023-04-05T08:45:36;98553.69;;;7.74;52.69
61573;BME280;47465;43.094;12.434;2023-04-05T08:48:07;98536.91;;;7.76;52.75
61573;BME280;47465;43.094;12.434;2023-04-05T08:50:32;98536.56;;;7.93;52.10
61573;BME280;47465;43.094;12.434;2023-04-05T08:53:00;98564.31;;;8.17;51.88
61573;BME280;47465;43.094;12.434;2023-04-05T08:55:27;98545.59;;;8.27;51.55
61573;BME280;47465;43.094;12.434;2023-04-05T08:57:55;98574.91;;;8.61;51.38
61573;BME280;47465;43.094;12.434;2023-04-05T09:00:24;98562.56;;;8.60;51.29
61573;BME280;47465;43.094;12.434;2023-04-05T09:02:54;98552.09;;;8.54;50.29
61573;BME280;47465;43.094;12.434;2023-04-05T09:05:22;98553.63;;;8.64;49.45
61573;BME280;47465;43.094;12.434;2023-04-05T09:07:49;98553.25;;;8.42;50.61
61573;BME280;47465;43.094;12.434;2023-04-05T09:10:17;98549.09;;;8.69;50.73
61573;BME280;47465;43.094;12.434;2023-04-05T09:12:44;98570.13;;;9.83;49.31
61573;BME280;47465;43.094;12.434;2023-04-05T09:15:10;98558.56;;;9.51;47.89
61573;BME280;47465;43.094;12.434;2023-04-05T09:17:37;98565.97;;;9.73;48.07
61573;BME280;47465;43.094;12.434;2023-04-05T09:20:04;98550.03;;;10.37;46.35
61573;BME280;47465;43.094;12.434;2023-04-05T09:22:30;98530.22;;;9.53;47.34
61573;BME280;47465;43.094;12.434;2023-04-05T09:25:07;98531.88;;;9.57;47.37
61573;BME280;47465;43.094;12.434;2023-04-05T09:27:34;98558.44;;;9.88;48.66
61573;BME280;47465;43.094;12.434;2023-04-05T09:30:00;98544.84;;;10.62;46.58
61573;BME280;47465;43.094;12.434;2023-04-05T09:32:26;98557.81;;;10.73;44.42
61573;BME280;47465;43.094;12.434;2023-04-05T09:34:53;98536.47;;;10.15;45.72
61573;BME280;47465;43.094;12.434;2023-04-05T09:37:20;98534.69;;;9.84;47.89
61573;BME280;47465;43.094;12.434;2023-04-05T09:39:47;98528.25;;;10.24;46.04
61573;BME280;47465;43.094;12.434;2023-04-05T09:42:15;98542.13;;;10.92;44.62
61573;BME280;47465;43.094;12.434;2023-04-05T09:44:52;98512.25;;;10.55;44.79
61573;BME280;47465;43.094;12.434;2023-04-05T09:47:20;98550.41;;;10.82;43.81
61573;BME280;47465;43.094;12.434;2023-04-05T09:49:46;98554.41;;;10.39;44.13
61573;BME280;47465;43.094;12.434;2023-04-05T09:52:20;98553.53;;;9.42;46.19
61573;BME280;47465;43.094;12.434;2023-04-05T09:54:46;98529.59;;;9.76;45.33
61573;BME280;47465;43.094;12.434;2023-04-05T09:57:12;98525.84;;;10.46;44.26
61573;BME280;47465;43.094;12.434;2023-04-05T09:59:40;98534.25;;;9.34;46.78
61573;BME280;47465;43.094;12.434;2023-04-05T10:02:09;98537.53;;;10.09;45.37
61573;BME280;47465;43.094;12.434;2023-04-05T10:04:39;98545.69;;;10.90;44.94
61573;BME280;47465;43.094;12.434;2023-04-05T10:07:06;98542.19;;;10.01;46.10
61573;BME280;47465;43.094;12.434;2023-04-05T10:09:32;98530.53;;;10.06;45.35
61573;BME280;47465;43.094;12.434;2023-04-05T10:12:00;98559.22;;;10.23;45.65
61573;BME280;47465;43.094;12.434;2023-04-05T10:14:27;98544.31;;;10.51;45.70
61573;BME280;47465;43.094;12.434;2023-04-05T10:17:11;98556.16;;;10.97;43.68
61573;BME280;47465;43.094;12.434;2023-04-05T10:19:49;98526.16;;;9.73;45.29
61573;BME280;47465;43.094;12.434;2023-04-05T10:22:22;98538.22;;;9.52;44.75
61573;BME280;47465;43.094;12.434;2023-04-05T10:24:51;98541.31;;;8.99;47.22
61573;BME280;47465;43.094;12.434;2023-04-05T10:27:24;98531.84;;;9.24;46.57
61573;BME280;47465;43.094;12.434;2023-04-05T10:30:02;98521.66;;;9.08;47.23
61573;BME280;47465;43.094;12.434;2023-04-05T10:32:40;98557.41;;;9.63;48.01
61573;BME280;47465;43.094;12.434;2023-04-05T10:35:09;98557.38;;;9.96;45.86
61573;BME280;47465;43.094;12.434;2023-04-05T10:37:48;98532.94;;;9.17;48.30
61573;BME280;47465;43.094;12.434;2023-04-05T10:40:19;98520.47;;;9.19;46.92
61573;BME280;47465;43.094;12.434;2023-04-05T10:42:47;98553.47;;;10.09;45.63
61573;BME280;47465;43.094;12.434;2023-04-05T10:45:16;98526.94;;;10.39;45.71
61573;BME280;47465;43.094;12.434;2023-04-05T10:47:48;98544.84;;;10.32;45.55
61573;BME280;47465;43.094;12.434;2023-04-05T10:50:21;98532.22;;;10.09;44.59
61573;BME280;47465;43.094;12.434;2023-04-05T10:52:48;98536.03;;;9.35;46.04
61573;BME280;47465;43.094;12.434;2023-04-05T10:55:15;98530.84;;;9.63;46.22
61573;BME280;47465;43.094;12.434;2023-04-05T10:57:43;98530.03;;;9.27;47.03
61573;BME280;47465;43.094;12.434;2023-04-05T11:00:11;98544.91;;;9.66;47.67
61573;BME280;47465;43.094;12.434;2023-04-05T11:02:38;98534.50;;;9.90;46.18
61573;BME280;47465;43.094;12.434;2023-04-05T11:05:30;98561.22;;;9.85;46.30
61573;BME280;47465;43.094;12.434;2023-04-05T11:08:00;98526.38;;;10.85;44.26
61573;BME280;47465;43.094;12.434;2023-04-05T11:10:27;98520.84;;;10.35;43.96
61573;BME280;47465;43.094;12.434;2023-04-05T11:13:05;98526.06;;;10.66;46.29
61573;BME280;47465;43.094;12.434;2023-04-05T11:15:33;98526.56;;;10.51;45.55
61573;BME280;47465;43.094;12.434;2023-04-05T11:18:04;98552.41;;;10.76;45.45
61573;BME280;47465;43.094;12.434;2023-04-05T11:20:47;98516.59;;;10.86;43.74
61573;BME280;47465;43.094;12.434;2023-04-05T11:23:17;98518.31;;;9.99;45.53
61573;BME280;47465;43.094;12.434;2023-04-05T11:25:50;98517.16;;;9.78;47.06
61573;BME280;47465;43.094;12.434;2023-04-05T11:28:29;98548.78;;;10.48;45.52
61573;BME280;47465;43.094;12.434;2023-04-05T11:30:56;98551.38;;;10.80;45.45
61573;BME280;47465;43.094;12.434;2023-04-05T11:33:53;98536.00;;;10.89;45.14
61573;BME280;47465;43.094;12.434;2023-04-05T11:36:38;98539.84;;;10.79;45.07
61573;BME280;47465;43.094;12.434;2023-04-05T11:39:25;98533.13;;;10.39;44.83
61573;BME280;47465;43.094;12.434;2023-04-05T11:42:12;98520.56;;;9.82;45.89
61573;BME280;47465;43.094;12.434;2023-04-05T11:45:26;98510.03;;;10.10;46.39
61573;BME280;47465;43.094;12.434;2023-04-05T11:48:51;98497.16;;;10.56;45.67
61573;BME280;47465;43.094;12.434;2023-04-05T11:51:25;98538.31;;;11.00;45.05
61573;BME280;47465;43.094;12.434;2023-04-05T11:54:02;98541.88;;;10.71;46.26
61573;BME280;47465;43.094;12.434;2023-04-05T11:56:55;98510.97;;;10.09;47.38
61573;BME280;47465;43.094;12.434;2023-04-05T12:04:06;98504.53;;;10.47;49.28
61573;BME280;47465;43.094;12.434;2023-04-05T12:06:32;98514.06;;;9.94;48.97
61573;BME280;47465;43.094;12.434;2023-04-05T12:09:00;98540.84;;;10.17;48.64
61573;BME280;47465;43.094;12.434;2023-04-05T12:11:42;98534.84;;;10.40;47.90
61573;BME280;47465;43.094;12.434;2023-04-05T12:14:37;98506.44;;;10.42;46.00
61573;BME280;47465;43.094;12.434;2023-04-05T12:17:36;98515.16;;;10.47;46.18
61573;BME280;47465;43.094;12.434;2023-04-05T12:20:03;98496.56;;;11.02;45.28
61573;BME280;47465;43.094;12.434;2023-04-05T12:22:30;98490.16;;;11.35;45.60
61573;BME280;47465;43.094;12.434;2023-04-05T12:24:58;98502.59;;;11.59;46.42
61573;BME280;47465;43.094;12.434;2023-04-05T12:28:04;98500.06;;;11.29;44.86
61573;BME280;47465;43.094;12.434;2023-04-05T12:30:55;98532.47;;;11.42;44.91
61573;BME280;47465;43.094;12.434;2023-04-05T12:33:26;98499.81;;;10.56;46.58
61573;BME280;47465;43.094;12.434;2023-04-05T12:35:53;98514.69;;;10.33;46.77
61573;BME280;47465;43.094;12.434;2023-04-05T12:38:19;98498.88;;;9.97;48.39
61573;BME280;47465;43.094;12.434;2023-04-05T12:40:46;98505.88;;;10.33;48.80
61573;BME280;47465;43.094;12.434;2023-04-05T12:43:12;98511.75;;;10.42;48.43
61573;BME280;47465;43.094;12.434;2023-04-05T12:45:44;98524.31;;;10.06;48.96
61573;BME280;47465;43.094;12.434;2023-04-05T12:48:11;98498.22;;;9.25;49.94
61573;BME280;47465;43.094;12.434;2023-04-05T12:50:41;98495.19;;;9.39;49.77
61573;BME280;47465;43.094;12.434;2023-04-05T12:53:07;98490.63;;;9.11;50.68
61573;BME280;47465;43.094;12.434;2023-04-05T12:55:41;98492.03;;;9.26;51.48
61573;BME280;47465;43.094;12.434;2023-04-05T12:58:10;98496.91;;;9.41;49.50
61573;BME280;47465;43.094;12.434;2023-04-05T13:00:36;98492.84;;;9.61;50.06
61573;BME280;47465;43.094;12.434;2023-04-05T13:03:02;98494.53;;;9.95;49.92
61573;BME280;47465;43.094;12.434;2023-04-05T13:05:29;98485.38;;;9.08;50.84
61573;BME280;47465;43.094;12.434;2023-04-05T13:07:55;98497.94;;;9.01;51.60
61573;BME280;47465;43.094;12.434;2023-04-05T13:10:22;98510.94;;;9.46;50.88
61573;BME280;47465;43.094;12.434;2023-04-05T13:12:49;98492.13;;;9.21;51.92
61573;BME280;47465;43.094;12.434;2023-04-05T13:15:17;98494.75;;;9.23;51.96